createdAt,value
2022-11-23T00:02:02.415Z,5.10
2022-11-23T00:04:34.509Z,5.10
2022-11-23T00:07:06.163Z,5.10
2022-11-23T00:09:38.483Z,5.10
2022-11-23T00:12:10.486Z,5.10
2022-11-23T00:14:42.317Z,5.10
2022-11-23T00:17:14.135Z,5.10
2022-11-23T00:19:46.204Z,5.10
2022-11-23T00:22:18.629Z,5.00
2022-11-23T00:24:50.456Z,5.00
2022-11-23T00:27:22.388Z,5.00
2022-11-23T00:29:54.366Z,5.00
2022-11-23T00:32:27.714Z,5.00
2022-11-23T00:34:59.524Z,4.90
2022-11-23T00:37:31.421Z,4.80
2022-11-23T00:40:03.332Z,4.70
2022-11-23T00:42:38.042Z,4.60
2022-11-23T00:45:14.791Z,4.40
2022-11-23T00:47:49.303Z,4.40
2022-11-23T00:50:22.217Z,4.40
2022-11-23T00:52:54.249Z,4.30
2022-11-23T00:55:26.824Z,4.30
2022-11-23T00:58:00.804Z,4.30
2022-11-23T01:00:32.513Z,4.40
2022-11-23T01:03:04.618Z,4.40
2022-11-23T01:05:39.299Z,4.40
2022-11-23T01:08:10.406Z,4.50
2022-11-23T01:10:42.116Z,4.40
2022-11-23T01:13:13.893Z,4.40
2022-11-23T01:15:52.093Z,4.30
2022-11-23T01:18:26.426Z,4.30
2022-11-23T01:20:58.421Z,4.30
2022-11-23T01:23:31.377Z,4.30
2022-11-23T01:26:08.890Z,4.40
2022-11-23T01:28:41.891Z,4.40
2022-11-23T01:31:15.944Z,4.40
2022-11-23T01:33:49.068Z,4.40
2022-11-23T01:36:23.105Z,4.40
2022-11-23T01:38:55.788Z,4.30
2022-11-23T01:41:29.901Z,4.20
2022-11-23T01:44:04.664Z,4.10
2022-11-23T01:46:36.525Z,4.10
2022-11-23T01:49:09.444Z,4.00
2022-11-23T01:51:43.192Z,3.90
2022-11-23T01:54:17.962Z,3.90
2022-11-23T01:56:52.931Z,3.70
2022-11-23T01:59:26.693Z,3.70
2022-11-23T02:01:59.306Z,3.60
2022-11-23T02:04:34.294Z,3.50
2022-11-23T02:07:07.589Z,3.40
2022-11-23T02:09:40.185Z,3.40
2022-11-23T02:12:13.633Z,3.40
2022-11-23T02:14:46.160Z,3.30
2022-11-23T02:17:18.122Z,3.30
2022-11-23T02:19:55.050Z,3.30
2022-11-23T02:22:31.021Z,3.30
2022-11-23T02:25:08.588Z,3.20
2022-11-23T02:27:46.617Z,3.10
2022-11-23T02:30:14.823Z,3.10
2022-11-23T02:32:46.764Z,3.10
2022-11-23T02:35:18.603Z,3.10
2022-11-23T02:37:53.247Z,3.00
2022-11-23T02:40:29.299Z,3.00
2022-11-23T02:43:01.930Z,2.90
2022-11-23T02:45:37.866Z,2.90
2022-11-23T02:48:09.709Z,2.90
2022-11-23T02:50:41.591Z,2.80
2022-11-23T02:53:15.072Z,2.70
2022-11-23T02:55:47.113Z,2.70
2022-11-23T02:58:18.934Z,2.60
2022-11-23T03:00:51.216Z,2.60
2022-11-23T03:03:23.152Z,2.60
2022-11-23T03:05:55.817Z,2.60
2022-11-23T03:08:27.588Z,2.50
2022-11-23T03:11:01.034Z,2.50
2022-11-23T03:13:33.631Z,2.50
2022-11-23T03:16:05.951Z,2.50
2022-11-23T03:18:38.336Z,2.50
2022-11-23T03:21:10.578Z,2.40
2022-11-23T03:23:42.405Z,2.40
2022-11-23T03:26:14.513Z,2.40
2022-11-23T03:28:46.787Z,2.40
2022-11-23T03:31:18.716Z,2.30
2022-11-23T03:33:50.618Z,2.20
2022-11-23T03:36:22.702Z,2.20
2022-11-23T03:38:54.470Z,2.20
2022-11-23T03:41:26.320Z,2.20
2022-11-23T03:43:58.475Z,2.20
2022-11-23T03:46:30.513Z,2.20
2022-11-23T03:49:02.405Z,2.20
2022-11-23T03:51:34.456Z,2.20
2022-11-23T03:54:06.829Z,2.30
2022-11-23T03:56:38.694Z,2.30
2022-11-23T03:59:10.683Z,2.30
2022-11-23T04:01:42.572Z,2.20
2022-11-23T04:04:14.505Z,2.20
2022-11-23T04:06:46.305Z,2.20
2022-11-23T04:09:18.117Z,2.20
2022-11-23T04:11:49.824Z,2.10
2022-11-23T04:14:22.820Z,2.00
2022-11-23T04:16:54.755Z,1.90
2022-11-23T04:19:26.730Z,1.90
2022-11-23T04:21:59.358Z,1.80
2022-11-23T04:24:30.908Z,1.80
2022-11-23T04:27:02.803Z,1.80
2022-11-23T04:29:34.818Z,1.80
2022-11-23T04:32:07.238Z,1.70
2022-11-23T04:34:39.285Z,1.70
2022-11-23T04:37:13.479Z,1.70
2022-11-23T04:39:44.687Z,1.70
2022-11-23T04:42:16.728Z,1.70
2022-11-23T04:44:48.992Z,1.70
2022-11-23T04:47:20.909Z,1.70
2022-11-23T04:49:52.871Z,1.60
2022-11-23T04:52:26.617Z,1.60
2022-11-23T04:54:58.459Z,1.60
2022-11-23T04:57:30.228Z,1.60
2022-11-23T05:00:03.003Z,1.80
2022-11-23T05:02:35.081Z,1.80
2022-11-23T05:05:08.170Z,1.90
2022-11-23T05:07:40.202Z,1.90
2022-11-23T05:10:12.671Z,1.90
2022-11-23T05:12:44.995Z,1.80
2022-11-23T05:15:18.322Z,1.70
2022-11-23T05:17:55.166Z,1.70
2022-11-23T05:20:25.067Z,1.60
2022-11-23T05:22:56.852Z,1.60
2022-11-23T05:25:29.414Z,1.60
2022-11-23T05:28:11.412Z,1.50
2022-11-23T05:30:35.860Z,1.50
2022-11-23T05:33:07.906Z,1.60
2022-11-23T05:35:40.227Z,1.50
2022-11-23T05:38:11.985Z,1.50
2022-11-23T05:40:43.904Z,1.50
2022-11-23T05:43:15.841Z,1.50
2022-11-23T05:45:47.730Z,1.50
2022-11-23T05:48:20.457Z,1.50
2022-11-23T05:50:52.926Z,1.50
2022-11-23T05:53:24.505Z,1.50
2022-11-23T05:56:01.026Z,1.50
2022-11-23T05:58:33.024Z,1.50
2022-11-23T06:01:06.077Z,1.50
2022-11-23T06:03:37.211Z,1.60
2022-11-23T06:06:09.740Z,1.60
2022-11-23T06:08:48.936Z,1.60
2022-11-23T06:11:17.413Z,1.50
2022-11-23T06:13:50.633Z,1.50
2022-11-23T06:16:22.494Z,1.50
2022-11-23T06:18:55.713Z,1.50
2022-11-23T06:21:27.603Z,1.50
2022-11-23T06:24:00.284Z,1.60
2022-11-23T06:26:32.720Z,1.70
2022-11-23T06:29:04.631Z,1.70
2022-11-23T06:31:37.181Z,1.70
2022-11-23T06:34:11.001Z,1.70
2022-11-23T06:36:43.439Z,1.70
2022-11-23T06:39:16.254Z,1.60
2022-11-23T06:41:48.425Z,1.60
2022-11-23T06:44:20.466Z,1.60
2022-11-23T06:46:53.522Z,1.60
2022-11-23T06:49:26.511Z,1.60
2022-11-23T06:52:02.616Z,1.60
2022-11-23T06:54:34.422Z,1.60
2022-11-23T06:57:09.285Z,1.60
2022-11-23T06:59:44.737Z,1.70
2022-11-23T07:02:15.769Z,1.80
2022-11-23T07:04:47.845Z,1.80
2022-11-23T07:07:24.231Z,1.80
2022-11-23T07:10:03.816Z,1.70
2022-11-23T07:12:38.896Z,1.70
2022-11-23T07:15:14.966Z,1.80
2022-11-23T07:17:46.609Z,1.80
2022-11-23T07:20:19.306Z,1.80
2022-11-23T07:23:00.703Z,1.80
2022-11-23T07:25:39.994Z,1.80
2022-11-23T07:28:14.606Z,1.80
2022-11-23T07:30:48.696Z,1.80
2022-11-23T07:33:20.888Z,1.80
2022-11-23T07:35:53.796Z,1.90
2022-11-23T07:38:25.770Z,1.90
2022-11-23T07:40:59.276Z,1.90
2022-11-23T07:43:31.821Z,1.90
2022-11-23T07:46:05.238Z,1.90
2022-11-23T07:48:37.374Z,1.90
2022-11-23T07:51:09.515Z,1.90
2022-11-23T07:53:41.168Z,1.90
2022-11-23T07:56:13.875Z,1.90
2022-11-23T07:58:45.821Z,2.00
2022-11-23T08:01:18.560Z,2.10
2022-11-23T08:03:50.762Z,2.20
2022-11-23T08:06:22.644Z,2.30
2022-11-23T08:08:55.594Z,2.40
2022-11-23T08:11:27.261Z,2.60
2022-11-23T08:13:59.130Z,2.70
2022-11-23T08:16:31.333Z,2.80
2022-11-23T08:19:03.048Z,2.80
2022-11-23T08:21:34.843Z,2.90
2022-11-23T08:24:08.302Z,2.90
2022-11-23T08:26:40.248Z,3.00
2022-11-23T08:29:12.072Z,3.00
2022-11-23T08:31:43.844Z,3.10
2022-11-23T08:34:15.743Z,3.20
2022-11-23T08:36:48.989Z,3.30
2022-11-23T08:39:22.252Z,3.40
2022-11-23T08:41:54.005Z,3.50
2022-11-23T08:44:25.698Z,3.60
2022-11-23T08:46:57.376Z,3.60
2022-11-23T08:49:29.440Z,3.70
2022-11-23T08:52:00.978Z,3.80
2022-11-23T08:54:33.940Z,3.90
2022-11-23T08:57:07.385Z,4.00
2022-11-23T08:59:39.375Z,4.20
2022-11-23T09:02:21.926Z,4.30
2022-11-23T09:04:53.584Z,4.50
2022-11-23T09:07:25.681Z,4.50
2022-11-23T09:09:58.456Z,4.60
2022-11-23T09:12:30.272Z,4.70
2022-11-23T09:15:02.009Z,4.70
2022-11-23T09:17:35.047Z,4.70
2022-11-23T09:20:09.991Z,4.80
2022-11-23T09:22:41.957Z,4.90
2022-11-23T09:25:15.381Z,5.00
2022-11-23T09:27:47.497Z,5.10
2022-11-23T09:33:26.230Z,5.20
2022-11-23T09:36:02.163Z,5.30
2022-11-23T09:38:54.998Z,5.40
2022-11-23T09:43:56.826Z,5.40
2022-11-23T09:46:37.194Z,5.40
2022-11-23T09:49:18.075Z,5.50
2022-11-23T09:51:51.334Z,5.50
2022-11-23T09:54:28.542Z,5.60
2022-11-23T09:57:02.081Z,5.70
2022-11-23T09:59:42.163Z,5.80
2022-11-23T10:02:21.935Z,5.80
2022-11-23T10:04:56.074Z,5.90
2022-11-23T10:07:47.338Z,6.00
2022-11-23T10:10:27.282Z,6.00
2022-11-23T10:13:03.685Z,6.10
2022-11-23T10:15:40.183Z,6.00
2022-11-23T10:18:19.253Z,6.00
2022-11-23T10:20:56.383Z,6.00
2022-11-23T10:23:46.718Z,6.10
2022-11-23T10:26:20.020Z,6.20
2022-11-23T10:28:51.944Z,6.20
2022-11-23T10:31:30.284Z,6.20
2022-11-23T10:34:05.616Z,6.30
2022-11-23T10:36:38.277Z,6.20
2022-11-23T10:39:19.958Z,6.30
2022-11-23T10:41:53.034Z,6.30
2022-11-23T10:44:37.762Z,6.40
2022-11-23T10:47:09.475Z,6.50
2022-11-23T10:49:42.483Z,6.40
2022-11-23T10:52:28.255Z,6.60
2022-11-23T10:55:03.426Z,6.60
2022-11-23T10:57:37.589Z,6.60
2022-11-23T11:00:19.377Z,6.60
2022-11-23T11:02:53.235Z,6.60
2022-11-23T11:06:07.059Z,6.60
2022-11-23T11:08:12.675Z,6.70
2022-11-23T11:10:48.884Z,6.60
2022-11-23T11:13:26.530Z,6.60
2022-11-23T11:16:00.813Z,6.60
2022-11-23T11:18:34.357Z,6.60
2022-11-23T11:21:09.795Z,6.70
2022-11-23T11:23:44.976Z,6.80
2022-11-23T11:26:21.729Z,6.90
2022-11-23T11:28:55.585Z,7.10
2022-11-23T11:31:50.574Z,7.30
2022-11-23T11:34:27.202Z,7.40
2022-11-23T11:37:03.507Z,7.40
2022-11-23T11:39:38.819Z,7.50
2022-11-23T11:42:15.057Z,7.60
2022-11-23T11:44:50.393Z,7.60
2022-11-23T11:47:28.800Z,7.60
2022-11-23T11:50:03.732Z,7.60
2022-11-23T11:52:38.646Z,7.50
2022-11-23T11:55:15.005Z,7.60
2022-11-23T11:57:50.679Z,7.70
2022-11-23T12:00:23.167Z,7.60
2022-11-23T12:03:02.724Z,7.60
2022-11-23T12:05:39.686Z,7.60
2022-11-23T12:08:14.775Z,7.70
2022-11-23T12:10:50.479Z,7.60
2022-11-23T12:13:24.718Z,7.60
2022-11-23T12:16:00.954Z,7.80
2022-11-23T12:18:40.632Z,7.90
2022-11-23T12:21:23.487Z,8.00
2022-11-23T12:23:59.721Z,8.10
2022-11-23T12:26:35.353Z,8.00
2022-11-23T12:29:25.173Z,8.00
2022-11-23T12:32:00.527Z,8.20
2022-11-23T12:34:44.197Z,8.30
2022-11-23T12:37:33.377Z,8.30
2022-11-23T12:43:23.655Z,8.30
2022-11-23T12:46:10.300Z,8.40
2022-11-23T12:48:50.988Z,8.40
2022-11-23T12:51:30.640Z,8.30
2022-11-23T12:54:11.844Z,8.30
2022-11-23T12:57:02.518Z,8.20
2022-11-23T12:59:39.382Z,8.00
2022-11-23T13:02:18.555Z,7.90
2022-11-23T13:05:39.983Z,7.80
2022-11-23T13:08:15.490Z,7.90
2022-11-23T13:11:00.908Z,8.00
2022-11-23T13:13:39.830Z,8.20
2022-11-23T13:16:19.568Z,8.20
2022-11-23T13:19:04.432Z,8.30
2022-11-23T13:21:37.169Z,8.30
2022-11-23T13:24:26.528Z,8.30
2022-11-23T13:27:35.291Z,8.30
2022-11-23T13:30:24.099Z,8.30
2022-11-23T13:32:59.200Z,8.40
2022-11-23T13:35:54.610Z,8.60
2022-11-23T13:38:42.257Z,8.60
2022-11-23T13:42:01.640Z,8.80
2022-11-23T13:44:34.553Z,9.00
2022-11-23T13:47:10.709Z,9.10
2022-11-23T13:49:45.114Z,9.20
2022-11-23T13:52:30.207Z,9.20
2022-11-23T13:55:09.671Z,9.10
2022-11-23T13:57:43.415Z,9.10
2022-11-23T14:00:49.784Z,9.20
2022-11-23T14:03:50.222Z,9.20
2022-11-23T14:06:35.421Z,9.40
2022-11-23T14:09:12.820Z,9.30
2022-11-23T14:11:52.363Z,9.30
2022-11-23T14:14:27.499Z,9.20
2022-11-23T14:17:34.526Z,9.10
2022-11-23T14:20:21.405Z,9.00
2022-11-23T14:23:02.492Z,9.00
2022-11-23T14:25:42.601Z,9.00
2022-11-23T14:28:22.348Z,9.00
2022-11-23T14:31:02.301Z,9.00
2022-11-23T14:33:39.171Z,9.10
2022-11-23T14:36:20.148Z,9.00
2022-11-23T14:39:28.950Z,8.90
2022-11-23T14:42:03.068Z,8.90
2022-11-23T14:44:38.665Z,8.80
2022-11-23T14:47:11.103Z,8.70
2022-11-23T14:49:52.007Z,8.60
2022-11-23T14:52:26.662Z,8.60
2022-11-23T14:55:01.813Z,8.60
2022-11-23T14:57:37.764Z,8.60
2022-11-23T15:00:25.759Z,8.50
2022-11-23T15:03:02.618Z,8.50
2022-11-23T15:05:36.706Z,8.40
2022-11-23T15:08:12.649Z,8.30
2022-11-23T15:10:48.921Z,8.20
2022-11-23T15:13:23.358Z,8.10
2022-11-23T15:15:57.615Z,8.00
2022-11-23T15:18:33.196Z,7.90
2022-11-23T15:21:08.167Z,7.90
2022-11-23T15:23:42.043Z,7.80
2022-11-23T15:26:41.870Z,7.80
2022-11-23T15:28:51.761Z,7.70
2022-11-23T15:31:32.360Z,7.70
2022-11-23T15:34:07.044Z,7.70
2022-11-23T15:36:40.668Z,7.60
2022-11-23T15:39:18.746Z,7.60
2022-11-23T15:41:51.591Z,7.60
2022-11-23T15:44:27.978Z,7.50
2022-11-23T15:47:03.136Z,7.50
2022-11-23T15:49:38.727Z,7.50
2022-11-23T15:52:16.355Z,7.60
2022-11-23T15:54:48.919Z,7.70
2022-11-23T15:57:24.273Z,7.80
2022-11-23T15:59:59.909Z,7.80
2022-11-23T16:02:32.663Z,7.80
2022-11-23T16:05:13.806Z,7.70
2022-11-23T16:07:57.572Z,7.60
2022-11-23T16:10:30.558Z,7.50
2022-11-23T16:13:04.520Z,7.40
2022-11-23T16:15:48.467Z,7.30
2022-11-23T16:18:25.213Z,7.30
2022-11-23T16:21:07.555Z,7.30
2022-11-23T16:23:44.984Z,7.40
2022-11-23T16:26:21.522Z,7.50
2022-11-23T16:28:56.224Z,7.60
2022-11-23T16:31:33.413Z,7.50
2022-11-23T16:34:04.498Z,7.40
2022-11-23T16:36:36.247Z,7.40
2022-11-23T16:39:08.039Z,7.30
2022-11-23T16:41:39.715Z,7.20
2022-11-23T16:44:11.599Z,7.20
2022-11-23T16:46:44.091Z,7.10
2022-11-23T16:49:18.959Z,7.10
2022-11-23T16:51:56.940Z,7.00
2022-11-23T16:54:28.075Z,7.00
2022-11-23T16:56:59.835Z,7.00
2022-11-23T16:59:36.161Z,7.00
2022-11-23T17:02:13.097Z,7.00
2022-11-23T17:04:45.855Z,7.00
2022-11-23T17:07:17.589Z,7.00
2022-11-23T17:09:49.478Z,7.00
2022-11-23T17:12:22.262Z,7.10
2022-11-23T17:15:02.106Z,7.00
2022-11-23T17:17:33.131Z,7.00
2022-11-23T17:20:06.172Z,7.20
2022-11-23T17:22:37.124Z,7.10
2022-11-23T17:25:14.445Z,6.90
2022-11-23T17:27:46.029Z,6.70
2022-11-23T17:30:20.872Z,6.50
2022-11-23T17:32:52.752Z,6.40
2022-11-23T17:35:24.406Z,6.30
2022-11-23T17:37:56.259Z,6.20
2022-11-23T17:40:28.131Z,6.00
2022-11-23T17:43:00.140Z,5.90
2022-11-23T17:45:32.086Z,5.90
2022-11-23T17:48:04.236Z,5.80
2022-11-23T17:50:45.624Z,5.80
2022-11-23T17:53:21.261Z,5.70
2022-11-23T17:55:50.836Z,5.70
2022-11-23T17:58:22.778Z,5.70
2022-11-23T18:00:54.562Z,5.70
2022-11-23T18:03:25.616Z,5.70
2022-11-23T18:05:59.327Z,5.70
2022-11-23T18:08:31.147Z,5.70
2022-11-23T18:11:02.948Z,5.80
2022-11-23T18:13:34.794Z,6.00
2022-11-23T18:16:07.875Z,6.00
2022-11-23T18:18:39.963Z,5.90
2022-11-23T18:21:15.806Z,5.90
2022-11-23T18:23:48.321Z,6.00
2022-11-23T18:26:22.172Z,6.00
2022-11-23T18:28:54.571Z,6.00
2022-11-23T18:31:26.711Z,6.10
2022-11-23T18:33:59.166Z,6.10
2022-11-23T18:36:31.380Z,6.00
2022-11-23T18:39:03.382Z,5.90
2022-11-23T18:41:35.072Z,5.90
2022-11-23T18:44:07.798Z,5.80
2022-11-23T18:46:41.026Z,5.70
2022-11-23T18:49:13.136Z,5.60
2022-11-23T18:51:44.966Z,5.60
2022-11-23T18:54:16.819Z,5.60
2022-11-23T18:56:49.108Z,5.60
2022-11-23T18:59:56.248Z,5.50
2022-11-23T19:01:56.145Z,5.50
2022-11-23T19:04:28.192Z,5.50
2022-11-23T19:06:59.698Z,5.50
2022-11-23T19:09:31.997Z,5.50
2022-11-23T19:12:06.002Z,5.50
2022-11-23T19:14:37.730Z,5.40
2022-11-23T19:17:09.302Z,5.50
2022-11-23T19:19:40.922Z,5.50
2022-11-23T19:22:12.743Z,5.50
2022-11-23T19:24:44.367Z,5.50
2022-11-23T19:27:16.236Z,5.50
2022-11-23T19:29:49.109Z,5.50
2022-11-23T19:32:20.964Z,5.50
2022-11-23T19:34:53.253Z,5.40
2022-11-23T19:37:25.214Z,5.40
2022-11-23T19:39:57.099Z,5.30
2022-11-23T19:42:29.228Z,5.30
2022-11-23T19:45:01.209Z,5.30
2022-11-23T19:47:33.464Z,5.20
2022-11-23T19:50:06.330Z,5.20
2022-11-23T19:53:09.868Z,5.20
2022-11-23T19:55:11.827Z,5.20
2022-11-23T19:57:43.490Z,5.20
2022-11-23T20:00:18.121Z,5.20
2022-11-23T20:02:50.024Z,5.20
2022-11-23T20:05:21.897Z,5.20
2022-11-23T20:07:54.829Z,5.20
2022-11-23T20:10:26.735Z,5.20
2022-11-23T20:12:59.062Z,5.10
2022-11-23T20:15:32.362Z,5.10
2022-11-23T20:18:04.872Z,5.10
2022-11-23T20:20:38.836Z,5.10
2022-11-23T20:23:11.791Z,5.00
2022-11-23T20:25:44.664Z,5.00
2022-11-23T20:28:16.604Z,4.90
2022-11-23T20:30:46.231Z,4.90
2022-11-23T20:33:19.631Z,4.90
2022-11-23T20:35:51.790Z,4.90
2022-11-23T20:38:23.789Z,4.90
2022-11-23T20:40:55.597Z,4.90
2022-11-23T20:43:29.650Z,4.90
2022-11-23T20:46:01.440Z,5.00
2022-11-23T20:48:34.509Z,5.10
2022-11-23T20:51:10.381Z,5.10
2022-11-23T20:53:41.058Z,5.20
2022-11-23T20:56:14.315Z,5.20
2022-11-23T20:58:47.015Z,5.30
2022-11-23T21:01:20.149Z,5.30
2022-11-23T21:03:54.244Z,5.40
2022-11-23T21:06:30.114Z,5.40
2022-11-23T21:09:03.292Z,5.40
2022-11-23T21:11:52.985Z,5.40
2022-11-23T21:14:27.681Z,5.50
2022-11-23T21:17:00.983Z,5.50
2022-11-23T21:19:34.858Z,5.50
2022-11-23T21:22:08.545Z,5.50
2022-11-23T21:24:41.919Z,5.50
2022-11-23T21:27:14.842Z,5.60
2022-11-23T21:29:46.592Z,5.60
2022-11-23T21:32:39.311Z,5.60
2022-11-23T21:35:11.477Z,5.60
2022-11-23T21:37:42.575Z,5.60
2022-11-23T21:40:17.499Z,5.50
2022-11-23T21:42:49.327Z,5.50
2022-11-23T21:45:21.094Z,5.50
2022-11-23T21:47:54.259Z,5.40
2022-11-23T21:50:29.457Z,5.30
2022-11-23T21:53:01.124Z,5.30
2022-11-23T21:55:33.435Z,5.30
2022-11-23T21:58:05.242Z,5.30
2022-11-23T22:00:37.560Z,5.40
2022-11-23T22:03:11.410Z,5.40
2022-11-23T22:05:43.113Z,5.40
2022-11-23T22:08:28.702Z,5.30
2022-11-23T22:10:48.275Z,5.40
2022-11-23T22:13:21.284Z,5.40
2022-11-23T22:15:53.061Z,5.40
2022-11-23T22:18:24.945Z,5.40
2022-11-23T22:20:58.306Z,5.50
2022-11-23T22:23:30.086Z,5.50
2022-11-23T22:26:03.841Z,5.70
2022-11-23T22:28:37.220Z,5.80
2022-11-23T22:31:11.267Z,5.80
2022-11-23T22:33:43.998Z,5.80
2022-11-23T22:36:17.871Z,5.60
2022-11-23T22:38:51.903Z,5.60
2022-11-23T22:41:25.964Z,5.50
2022-11-23T22:43:57.772Z,5.50
2022-11-23T22:46:29.756Z,5.50
2022-11-23T22:49:02.117Z,5.50
2022-11-23T22:51:34.139Z,5.50
2022-11-23T22:54:06.230Z,5.50
2022-11-23T22:56:39.367Z,5.50
2022-11-23T22:59:11.363Z,5.50
2022-11-23T23:01:43.152Z,5.50
2022-11-23T23:04:14.862Z,5.40
2022-11-23T23:06:46.717Z,5.40
2022-11-23T23:09:19.095Z,5.40
2022-11-23T23:11:50.797Z,5.40
2022-11-23T23:14:23.034Z,5.40
2022-11-23T23:16:57.286Z,5.30
2022-11-23T23:19:30.197Z,5.30
2022-11-23T23:22:02.172Z,5.30
2022-11-23T23:24:34.253Z,5.30
2022-11-23T23:27:06.369Z,5.30
2022-11-23T23:29:38.387Z,5.30
2022-11-23T23:32:11.690Z,5.30
2022-11-23T23:34:43.646Z,5.30
2022-11-23T23:37:15.370Z,5.30
2022-11-23T23:39:47.361Z,5.30
2022-11-23T23:42:19.711Z,5.30
2022-11-23T23:44:51.575Z,5.30
2022-11-23T23:47:23.419Z,5.30
2022-11-23T23:49:55.121Z,5.30
2022-11-23T23:52:27.597Z,5.30
2022-11-23T23:54:59.426Z,5.40
2022-11-23T23:57:32.109Z,5.30
